createdAt,value
2018-03-07T00:01:28.001Z,255.9
2018-03-07T00:11:26.715Z,303.5
2018-03-07T00:21:26.582Z,429.4
2018-03-07T00:31:27.234Z,399.0
2018-03-07T00:41:27.299Z,331.7
2018-03-07T00:51:26.870Z,398.2
2018-03-07T01:01:28.684Z,319.9
2018-03-07T01:11:26.378Z,330.6
2018-03-07T01:21:27.150Z,330.8
2018-03-07T01:31:26.744Z,352.3
2018-03-07T01:41:26.639Z,288.7
2018-03-07T01:51:26.731Z,306.4
2018-03-07T02:01:26.534Z,307.3
2018-03-07T02:11:27.457Z,365.0
2018-03-07T02:21:27.243Z,287.2
2018-03-07T02:31:26.808Z,244.5
2018-03-07T02:41:26.346Z,334.5
2018-03-07T02:51:26.878Z,298.0
2018-03-07T03:01:26.719Z,210.4
2018-03-07T03:11:27.461Z,293.1
2018-03-07T03:21:27.509Z,341.8
2018-03-07T03:31:26.930Z,294.7
2018-03-07T03:41:27.090Z,326.2
2018-03-07T03:51:26.860Z,296.8
2018-03-07T04:01:26.645Z,413.9
2018-03-07T04:11:27.604Z,298.5
2018-03-07T04:21:26.532Z,282.3
2018-03-07T04:31:27.104Z,238.5
2018-03-07T04:41:26.757Z,234.7
2018-03-07T04:51:27.228Z,238.4
2018-03-07T05:01:27.000Z,225.3
2018-03-07T05:11:27.578Z,234.1
2018-03-07T05:21:26.350Z,249.9
2018-03-07T05:31:26.705Z,220.7
2018-03-07T05:41:29.268Z,224.1
2018-03-07T05:51:27.348Z,357.3
2018-03-07T06:01:27.998Z,242.8
2018-03-07T06:11:26.501Z,268.3
2018-03-07T06:21:26.268Z,327.8
2018-03-07T06:31:27.352Z,420.3
2018-03-07T06:41:32.705Z,446.7
2018-03-07T06:51:27.709Z,271.4
2018-03-07T07:01:28.397Z,267.8
2018-03-07T07:11:26.897Z,263.3
2018-03-07T07:21:28.121Z,279.3
2018-03-07T07:31:28.769Z,355.9
2018-03-07T07:41:26.338Z,294.1
2018-03-07T07:51:27.183Z,283.0
2018-03-07T08:01:26.860Z,341.9
2018-03-07T08:11:26.928Z,311.4
2018-03-07T08:21:27.941Z,341.2
2018-03-07T08:31:26.572Z,318.5
2018-03-07T08:41:27.992Z,307.9
2018-03-07T08:51:28.238Z,293.4
2018-03-07T09:01:27.344Z,262.5
2018-03-07T09:11:27.692Z,224.1
2018-03-07T09:21:28.192Z,209.8
2018-03-07T09:31:27.362Z,203.7
2018-03-07T09:41:27.039Z,206.0
2018-03-07T09:51:26.502Z,199.1
2018-03-07T10:01:30.180Z,177.8
2018-03-07T10:11:29.953Z,146.5
2018-03-07T10:21:27.276Z,101.1
2018-03-07T10:31:27.993Z,118.8
2018-03-07T10:41:26.546Z,76.2
2018-03-07T10:51:27.307Z,38.1
2018-03-07T11:01:27.346Z,27.9
2018-03-07T11:11:27.494Z,33.0
2018-03-07T11:21:28.441Z,28.8
2018-03-07T11:31:28.612Z,28.7
2018-03-07T11:41:27.200Z,26.5
2018-03-07T11:51:27.155Z,28.5
2018-03-07T12:01:28.655Z,33.2
2018-03-07T12:11:27.561Z,31.9
2018-03-07T12:21:26.329Z,34.4
2018-03-07T12:31:27.076Z,27.5
2018-03-07T12:41:27.060Z,29.1
2018-03-07T12:51:27.043Z,32.1
2018-03-07T13:01:28.599Z,30.5
2018-03-07T13:11:27.186Z,35.8
2018-03-07T13:21:27.262Z,35.5
2018-03-07T13:31:26.884Z,37.5
2018-03-07T13:41:27.181Z,37.2
2018-03-07T13:51:26.703Z,42.3
2018-03-07T14:01:29.866Z,34.1
2018-03-07T14:11:27.466Z,42.2
2018-03-07T14:21:27.329Z,46.5
2018-03-07T14:31:26.989Z,48.4
2018-03-07T14:41:27.413Z,38.9
2018-03-07T14:51:27.130Z,49.1
2018-03-07T15:01:27.354Z,45.2
2018-03-07T15:11:27.021Z,44.1
2018-03-07T15:21:27.117Z,58.4
2018-03-07T15:31:27.813Z,58.3
2018-03-07T15:41:26.930Z,59.1
2018-03-07T15:51:27.121Z,59.2
2018-03-07T16:01:29.042Z,62.2
2018-03-07T16:11:27.709Z,62.9
2018-03-07T16:21:27.103Z,55.7
2018-03-07T16:31:27.299Z,56.5
2018-03-07T16:41:27.004Z,62.0
2018-03-07T16:51:26.582Z,62.8
2018-03-07T17:01:28.998Z,65.1
2018-03-07T17:11:28.079Z,77.7
2018-03-07T17:21:27.568Z,75.2
2018-03-07T17:31:28.959Z,79.9
2018-03-07T17:41:27.782Z,89.8
2018-03-07T17:51:26.687Z,84.0
2018-03-07T18:01:27.255Z,87.6
2018-03-07T18:11:27.303Z,85.4
2018-03-07T18:21:27.800Z,86.3
2018-03-07T18:31:26.395Z,84.9
2018-03-07T18:41:27.608Z,88.2
2018-03-07T18:51:28.996Z,90.8
2018-03-07T19:01:26.543Z,95.4
2018-03-07T19:11:28.328Z,88.9
2018-03-07T19:21:27.265Z,86.3
2018-03-07T19:31:26.855Z,91.9
2018-03-07T19:41:27.322Z,93.8
2018-03-07T19:51:28.356Z,91.3
2018-03-07T20:01:26.996Z,102.1
2018-03-07T20:11:29.441Z,116.5
2018-03-07T20:21:27.149Z,110.3
2018-03-07T20:31:26.928Z,114.2
2018-03-07T20:41:27.537Z,112.8
2018-03-07T20:51:27.193Z,110.0
2018-03-07T21:01:26.788Z,111.4
2018-03-07T21:11:26.752Z,119.1
2018-03-07T21:21:26.928Z,139.0
2018-03-07T21:31:27.911Z,136.8
2018-03-07T21:41:27.632Z,125.4
2018-03-07T21:51:27.669Z,131.0
2018-03-07T22:01:27.270Z,126.4
2018-03-07T22:11:27.111Z,123.0
2018-03-07T22:21:28.047Z,136.3
2018-03-07T22:31:26.614Z,122.8
2018-03-07T22:41:27.213Z,136.6
2018-03-07T22:51:27.709Z,140.7
2018-03-07T23:01:27.810Z,125.2
2018-03-07T23:11:27.475Z,133.1
2018-03-07T23:21:28.338Z,141.2
2018-03-07T23:31:27.529Z,136.8
2018-03-07T23:41:27.086Z,137.0
2018-03-07T23:51:27.142Z,130.2
